Terminal Aerodrome Forecast
Issued by NWS Sterling, VA

Current Version | Previous Version | Graphics & Text | Print | Product List | Glossary On
Versions: 1 2 3 4 5 6 7 8 9 10 11 12 13 14 15 16 17 18 19 20
000
FTUS41 KLWX 231120
TAFMRB
TAF
KMRB 231120Z 2312/2412 VRB03KT P6SM SCT200
     FM240400 00000KT P6SM OVC100
     FM240600 00000KT P6SM -RA OVC050
     FM240900 VRB03KT P6SM RA OVC020=

USA.gov is the U.S. government's official web portal to all federal, state and local government web resources and services.